Carrollton, Georgia
Current Conditions -  °F | °C
As of 3:55 PM on Saturday 20 Dec 2014 (Local Time) from KCTJ Reporting Station
Overcast Overcast  
Wind Chill: 46°   Ceiling: 500
Heat Index: 46°   Visibility: 7mi
Dew Point: 46°   Wind: 3mph
Humidity: 100%   Direction: 350°N
Pressure: 30.19"   Gusts: NA
Location:  33.58°N, 85.08°W
Report Text: KCTJ 202055Z AUTO 35003KT 7SM OVC005 08/08 A3019 RMK AO2
Loading
Personal Weather Stations






























Interactive Weather Map New forecast layout! Learn more

10-Day Weather Forecast

Advertisements
Track Severe Weather on mobile